sensor_id;sensor_type;location;lat;lon;timestamp;pressure;altitude;pressure_sealevel;temperature;humidity
18022;BME280;9136;48.822;7.966;2023-01-20T00:02:45;99694.97;;;-1.53;100.00
18022;BME280;9136;48.822;7.966;2023-01-20T00:05:33;99701.81;;;-1.56;100.00
18022;BME280;9136;48.822;7.966;2023-01-20T00:08:21;99678.53;;;-1.70;100.00
18022;BME280;9136;48.822;7.966;2023-01-20T00:11:11;99669.72;;;-1.95;100.00
18022;BME280;9136;48.822;7.966;2023-01-20T00:14:01;99699.84;;;-1.86;100.00
18022;BME280;9136;48.822;7.966;2023-01-20T00:16:49;99702.38;;;-1.92;100.00
18022;BME280;9136;48.822;7.966;2023-01-20T00:19:36;99704.16;;;-1.84;100.00
18022;BME280;9136;48.822;7.966;2023-01-20T00:22:24;99694.66;;;-1.92;100.00
18022;BME280;9136;48.822;7.966;2023-01-20T00:25:12;99723.09;;;-1.79;100.00
18022;BME280;9136;48.822;7.966;2023-01-20T00:28:02;99730.88;;;-1.73;100.00
18022;BME280;9136;48.822;7.966;2023-01-20T00:30:50;99698.91;;;-1.96;100.00
18022;BME280;9136;48.822;7.966;2023-01-20T00:33:38;99704.03;;;-1.97;100.00
18022;BME280;9136;48.822;7.966;2023-01-20T00:36:28;99724.53;;;-2.07;100.00
18022;BME280;9136;48.822;7.966;2023-01-20T00:39:16;99744.34;;;-2.01;100.00
18022;BME280;9136;48.822;7.966;2023-01-20T00:42:04;99743.50;;;-1.95;100.00
18022;BME280;9136;48.822;7.966;2023-01-20T00:44:53;99708.13;;;-2.19;100.00
18022;BME280;9136;48.822;7.966;2023-01-20T00:47:41;99720.94;;;-2.22;100.00
18022;BME280;9136;48.822;7.966;2023-01-20T00:50:29;99739.09;;;-2.10;100.00
18022;BME280;9136;48.822;7.966;2023-01-20T00:53:17;99732.91;;;-2.26;100.00
18022;BME280;9136;48.822;7.966;2023-01-20T00:56:05;99746.78;;;-2.12;100.00
18022;BME280;9136;48.822;7.966;2023-01-20T00:58:53;99752.75;;;-2.13;100.00
18022;BME280;9136;48.822;7.966;2023-01-20T01:01:43;99727.81;;;-2.21;100.00
18022;BME280;9136;48.822;7.966;2023-01-20T01:04:31;99751.09;;;-2.12;100.00
18022;BME280;9136;48.822;7.966;2023-01-20T01:07:19;99737.28;;;-2.19;100.00
18022;BME280;9136;48.822;7.966;2023-01-20T01:10:08;99737.25;;;-2.22;100.00
18022;BME280;9136;48.822;7.966;2023-01-20T01:12:58;99757.03;;;-2.16;100.00
18022;BME280;9136;48.822;7.966;2023-01-20T01:15:48;99762.19;;;-2.13;100.00
18022;BME280;9136;48.822;7.966;2023-01-20T01:18:38;99742.41;;;-2.22;100.00
18022;BME280;9136;48.822;7.966;2023-01-20T01:21:26;99754.38;;;-2.22;100.00
18022;BME280;9136;48.822;7.966;2023-01-20T01:24:14;99769.81;;;-2.22;100.00
18022;BME280;9136;48.822;7.966;2023-01-20T01:27:02;99771.59;;;-2.18;100.00
18022;BME280;9136;48.822;7.966;2023-01-20T01:29:51;99769.03;;;-2.15;100.00
18022;BME280;9136;48.822;7.966;2023-01-20T01:32:38;99752.63;;;-2.28;100.00
18022;BME280;9136;48.822;7.966;2023-01-20T01:35:28;99789.72;;;-2.08;100.00
18022;BME280;9136;48.822;7.966;2023-01-20T01:38:15;99761.13;;;-2.32;100.00
18022;BME280;9136;48.822;7.966;2023-01-20T01:41:04;99793.03;;;-2.19;100.00
18022;BME280;9136;48.822;7.966;2023-01-20T01:44:04;99804.25;;;-2.11;100.00
18022;BME280;9136;48.822;7.966;2023-01-20T01:46:53;99789.63;;;-2.15;100.00
18022;BME280;9136;48.822;7.966;2023-01-20T01:49:41;99774.06;;;-2.24;100.00
18022;BME280;9136;48.822;7.966;2023-01-20T01:52:30;99794.72;;;-2.21;100.00
18022;BME280;9136;48.822;7.966;2023-01-20T01:55:21;99791.16;;;-2.31;100.00
18022;BME280;9136;48.822;7.966;2023-01-20T01:58:11;99792.16;;;-2.18;100.00
18022;BME280;9136;48.822;7.966;2023-01-20T02:01:01;99797.47;;;-2.03;100.00
18022;BME280;9136;48.822;7.966;2023-01-20T02:03:55;99779.38;;;-2.12;100.00
18022;BME280;9136;48.822;7.966;2023-01-20T02:06:46;99788.00;;;-2.09;100.00
18022;BME280;9136;48.822;7.966;2023-01-20T02:09:37;99798.28;;;-2.07;100.00
18022;BME280;9136;48.822;7.966;2023-01-20T02:12:26;99835.38;;;-1.90;100.00
18022;BME280;9136;48.822;7.966;2023-01-20T02:15:17;99807.00;;;-1.96;100.00
18022;BME280;9136;48.822;7.966;2023-01-20T02:18:28;99829.56;;;-1.74;100.00
18022;BME280;9136;48.822;7.966;2023-01-20T02:21:48;99815.75;;;-1.82;100.00
18022;BME280;9136;48.822;7.966;2023-01-20T02:25:09;99820.09;;;-1.75;100.00
18022;BME280;9136;48.822;7.966;2023-01-20T02:31:54;99854.53;;;-1.65;100.00
18022;BME280;9136;48.822;7.966;2023-01-20T02:34:54;99837.34;;;-1.64;100.00
18022;BME280;9136;48.822;7.966;2023-01-20T02:37:46;99825.31;;;-1.68;100.00
18022;BME280;9136;48.822;7.966;2023-01-20T02:40:42;99820.09;;;-1.75;100.00
18022;BME280;9136;48.822;7.966;2023-01-20T02:43:39;99812.41;;;-1.71;100.00
18022;BME280;9136;48.822;7.966;2023-01-20T02:46:32;99814.06;;;-1.75;100.00
18022;BME280;9136;48.822;7.966;2023-01-20T02:49:27;99842.56;;;-1.63;100.00
18022;BME280;9136;48.822;7.966;2023-01-20T02:52:20;99803.66;;;-1.86;100.00
18022;BME280;9136;48.822;7.966;2023-01-20T02:55:10;99834.78;;;-1.64;100.00
18022;BME280;9136;48.822;7.966;2023-01-20T02:58:03;99824.31;;;-1.83;100.00
18022;BME280;9136;48.822;7.966;2023-01-20T03:00:57;99829.50;;;-1.80;100.00
18022;BME280;9136;48.822;7.966;2023-01-20T03:03:48;99836.38;;;-1.79;100.00
18022;BME280;9136;48.822;7.966;2023-01-20T03:06:44;99841.31;;;-1.97;100.00
18022;BME280;9136;48.822;7.966;2023-01-20T03:09:36;99847.38;;;-1.92;100.00
18022;BME280;9136;48.822;7.966;2023-01-20T03:12:28;99865.28;;;-2.01;100.00
18022;BME280;9136;48.822;7.966;2023-01-20T03:15:20;99860.09;;;-2.04;100.00
18022;BME280;9136;48.822;7.966;2023-01-20T03:18:09;99855.72;;;-2.11;100.00
18022;BME280;9136;48.822;7.966;2023-01-20T03:20:58;99839.38;;;-2.13;100.00
18022;BME280;9136;48.822;7.966;2023-01-20T03:23:50;99865.22;;;-2.04;100.00
18022;BME280;9136;48.822;7.966;2023-01-20T03:26:40;99873.91;;;-1.96;100.00
18022;BME280;9136;48.822;7.966;2023-01-20T03:29:28;99880.84;;;-1.90;100.00
18022;BME280;9136;48.822;7.966;2023-01-20T03:32:17;99899.00;;;-1.78;100.00
18022;BME280;9136;48.822;7.966;2023-01-20T03:35:08;99894.69;;;-1.81;100.00
18022;BME280;9136;48.822;7.966;2023-01-20T03:37:56;99884.44;;;-1.76;100.00
18022;BME280;9136;48.822;7.966;2023-01-20T03:40:53;99861.13;;;-1.88;100.00
18022;BME280;9136;48.822;7.966;2023-01-20T03:43:51;99900.84;;;-1.66;100.00
18022;BME280;9136;48.822;7.966;2023-01-20T03:46:46;99928.53;;;-1.50;100.00
18022;BME280;9136;48.822;7.966;2023-01-20T03:49:44;99887.13;;;-1.65;100.00
18022;BME280;9136;48.822;7.966;2023-01-20T03:52:41;99890.63;;;-1.60;100.00
18022;BME280;9136;48.822;7.966;2023-01-20T03:55:34;99883.78;;;-1.60;100.00
18022;BME280;9136;48.822;7.966;2023-01-20T03:58:28;99898.47;;;-1.50;100.00
18022;BME280;9136;48.822;7.966;2023-01-20T04:01:19;99918.31;;;-1.44;100.00
18022;BME280;9136;48.822;7.966;2023-01-20T04:04:11;99903.63;;;-1.50;100.00
18022;BME280;9136;48.822;7.966;2023-01-20T04:07:02;99927.88;;;-1.31;100.00
18022;BME280;9136;48.822;7.966;2023-01-20T04:09:55;99940.84;;;-1.23;100.00
18022;BME280;9136;48.822;7.966;2023-01-20T04:12:44;99920.22;;;-1.23;100.00
18022;BME280;9136;48.822;7.966;2023-01-20T04:15:37;99941.75;;;-1.18;100.00
18022;BME280;9136;48.822;7.966;2023-01-20T04:18:26;99900.31;;;-1.39;100.00
18022;BME280;9136;48.822;7.966;2023-01-20T04:21:20;99910.72;;;-1.29;100.00
18022;BME280;9136;48.822;7.966;2023-01-20T04:24:15;99943.44;;;-1.23;100.00
18022;BME280;9136;48.822;7.966;2023-01-20T04:27:05;99933.81;;;-1.36;100.00
18022;BME280;9136;48.822;7.966;2023-01-20T04:29:53;99950.22;;;-1.28;100.00
18022;BME280;9136;48.822;7.966;2023-01-20T04:32:43;99930.28;;;-1.46;100.00
18022;BME280;9136;48.822;7.966;2023-01-20T04:35:30;99970.94;;;-1.19;100.00
18022;BME280;9136;48.822;7.966;2023-01-20T04:38:18;99947.66;;;-1.27;100.00
18022;BME280;9136;48.822;7.966;2023-01-20T04:41:08;99946.84;;;-1.24;100.00
18022;BME280;9136;48.822;7.966;2023-01-20T04:43:57;99950.03;;;-1.45;100.00
18022;BME280;9136;48.822;7.966;2023-01-20T04:46:45;99949.84;;;-1.62;100.00
18022;BME280;9136;48.822;7.966;2023-01-20T04:49:35;99948.91;;;-1.67;100.00
18022;BME280;9136;48.822;7.966;2023-01-20T04:52:25;99949.00;;;-1.61;100.00
18022;BME280;9136;48.822;7.966;2023-01-20T04:55:13;99973.25;;;-1.43;100.00
18022;BME280;9136;48.822;7.966;2023-01-20T04:58:01;99958.59;;;-1.49;100.00
18022;BME280;9136;48.822;7.966;2023-01-20T05:00:49;99956.72;;;-1.62;100.00
18022;BME280;9136;48.822;7.966;2023-01-20T05:03:37;99947.91;;;-1.80;100.00
18022;BME280;9136;48.822;7.966;2023-01-20T05:06:26;99940.22;;;-1.77;100.00
18022;BME280;9136;48.822;7.966;2023-01-20T05:09:15;99966.16;;;-1.63;100.00
18022;BME280;9136;48.822;7.966;2023-01-20T05:12:04;99965.34;;;-1.57;100.00
18022;BME280;9136;48.822;7.966;2023-01-20T05:14:52;99973.03;;;-1.63;100.00
18022;BME280;9136;48.822;7.966;2023-01-20T05:17:40;99943.47;;;-1.93;100.00
18022;BME280;9136;48.822;7.966;2023-01-20T05:20:27;99992.72;;;-1.65;100.00
18022;BME280;9136;48.822;7.966;2023-01-20T05:23:17;99981.53;;;-1.67;100.00
18022;BME280;9136;48.822;7.966;2023-01-20T05:26:05;99969.47;;;-1.71;100.00
18022;BME280;9136;48.822;7.966;2023-01-20T05:28:52;100002.09;;;-1.70;100.00
18022;BME280;9136;48.822;7.966;2023-01-20T05:31:40;99983.75;;;-1.95;100.00
18022;BME280;9136;48.822;7.966;2023-01-20T05:34:29;100006.91;;;-1.93;100.00
18022;BME280;9136;48.822;7.966;2023-01-20T05:37:17;99986.91;;;-2.14;100.00
18022;BME280;9136;48.822;7.966;2023-01-20T05:40:08;99999.13;;;-1.99;100.00
18022;BME280;9136;48.822;7.966;2023-01-20T05:42:57;100002.56;;;-1.99;100.00
18022;BME280;9136;48.822;7.966;2023-01-20T05:45:45;100008.56;;;-2.00;100.00
18022;BME280;9136;48.822;7.966;2023-01-20T05:48:33;99998.16;;;-2.06;100.00
18022;BME280;9136;48.822;7.966;2023-01-20T05:51:21;100043.09;;;-1.84;100.00
18022;BME280;9136;48.822;7.966;2023-01-20T05:54:09;100031.91;;;-1.86;100.00
18022;BME280;9136;48.822;7.966;2023-01-20T05:56:59;100022.41;;;-1.92;100.00
18022;BME280;9136;48.822;7.966;2023-01-20T05:59:46;100004.41;;;-1.90;100.00
18022;BME280;9136;48.822;7.966;2023-01-20T06:02:36;100052.91;;;-1.57;100.00
18022;BME280;9136;48.822;7.966;2023-01-20T06:05:24;100030.41;;;-1.74;100.00
18022;BME280;9136;48.822;7.966;2023-01-20T06:08:12;100054.59;;;-1.62;100.00
18022;BME280;9136;48.822;7.966;2023-01-20T06:11:01;100060.72;;;-1.54;100.00
18022;BME280;9136;48.822;7.966;2023-01-20T06:13:50;100070.16;;;-1.53;100.00
18022;BME280;9136;48.822;7.966;2023-01-20T06:16:38;100041.44;;;-1.81;100.00
18022;BME280;9136;48.822;7.966;2023-01-20T06:19:26;100058.81;;;-1.64;100.00
18022;BME280;9136;48.822;7.966;2023-01-20T06:22:14;100046.66;;;-1.75;100.00
18022;BME280;9136;48.822;7.966;2023-01-20T06:25:04;100038.06;;;-1.77;100.00
18022;BME280;9136;48.822;7.966;2023-01-20T06:27:52;100072.75;;;-1.52;100.00
18022;BME280;9136;48.822;7.966;2023-01-20T06:30:41;100066.69;;;-1.55;100.00
18022;BME280;9136;48.822;7.966;2023-01-20T06:33:29;100073.63;;;-1.50;100.00
18022;BME280;9136;48.822;7.966;2023-01-20T06:36:17;100071.09;;;-1.47;100.00
18022;BME280;9136;48.822;7.966;2023-01-20T06:39:05;100044.28;;;-1.62;100.00
18022;BME280;9136;48.822;7.966;2023-01-20T06:41:56;100062.34;;;-1.58;100.00
18022;BME280;9136;48.822;7.966;2023-01-20T06:44:44;100053.50;;;-1.78;100.00
18022;BME280;9136;48.822;7.966;2023-01-20T06:47:34;100070.03;;;-1.64;100.00
18022;BME280;9136;48.822;7.966;2023-01-20T06:50:29;100081.13;;;-1.66;100.00
18022;BME280;9136;48.822;7.966;2023-01-20T06:53:17;100111.31;;;-1.56;100.00
18022;BME280;9136;48.822;7.966;2023-01-20T06:56:05;100062.81;;;-1.86;100.00
18022;BME280;9136;48.822;7.966;2023-01-20T06:58:53;100092.94;;;-1.81;100.00
18022;BME280;9136;48.822;7.966;2023-01-20T07:01:41;100109.16;;;-1.85;100.00
18022;BME280;9136;48.822;7.966;2023-01-20T07:04:30;100086.88;;;-1.84;100.00
18022;BME280;9136;48.822;7.966;2023-01-20T07:07:18;100089.44;;;-1.84;100.00
18022;BME280;9136;48.822;7.966;2023-01-20T07:10:07;100073.78;;;-1.99;100.00
18022;BME280;9136;48.822;7.966;2023-01-20T07:12:55;100097.09;;;-1.90;100.00
18022;BME280;9136;48.822;7.966;2023-01-20T07:15:43;100083.94;;;-2.09;100.00
18022;BME280;9136;48.822;7.966;2023-01-20T07:18:31;100107.13;;;-2.06;100.00
18022;BME280;9136;48.822;7.966;2023-01-20T07:21:21;100108.00;;;-2.05;100.00
18022;BME280;9136;48.822;7.966;2023-01-20T07:24:09;100103.50;;;-2.18;100.00
18022;BME280;9136;48.822;7.966;2023-01-20T07:26:56;100131.06;;;-2.11;100.00
18022;BME280;9136;48.822;7.966;2023-01-20T07:29:44;100148.28;;;-2.07;100.00
18022;BME280;9136;48.822;7.966;2023-01-20T07:32:32;100139.69;;;-2.09;100.00
18022;BME280;9136;48.822;7.966;2023-01-20T07:35:20;100149.31;;;-1.97;100.00
18022;BME280;9136;48.822;7.966;2023-01-20T07:38:09;100180.38;;;-1.85;100.00
18022;BME280;9136;48.822;7.966;2023-01-20T07:40:58;100152.84;;;-1.92;100.00
18022;BME280;9136;48.822;7.966;2023-01-20T07:43:47;100134.56;;;-2.08;100.00
18022;BME280;9136;48.822;7.966;2023-01-20T07:46:35;100189.75;;;-1.90;100.00
18022;BME280;9136;48.822;7.966;2023-01-20T07:49:23;100155.97;;;-2.09;100.00
18022;BME280;9136;48.822;7.966;2023-01-20T07:52:11;100137.00;;;-2.15;100.00
18022;BME280;9136;48.822;7.966;2023-01-20T07:55:00;100174.97;;;-2.02;100.00
18022;BME280;9136;48.822;7.966;2023-01-20T07:57:48;100159.38;;;-2.11;100.00
18022;BME280;9136;48.822;7.966;2023-01-20T08:00:37;100183.59;;;-1.98;100.00
18022;BME280;9136;48.822;7.966;2023-01-20T08:03:26;100208.69;;;-1.87;100.00
18022;BME280;9136;48.822;7.966;2023-01-20T08:06:16;100193.97;;;-1.94;100.00
18022;BME280;9136;48.822;7.966;2023-01-20T08:09:04;100187.88;;;-1.99;100.00
18022;BME280;9136;48.822;7.966;2023-01-20T08:11:55;100185.22;;;-2.04;100.00
18022;BME280;9136;48.822;7.966;2023-01-20T08:14:44;100222.41;;;-1.88;100.00
18022;BME280;9136;48.822;7.966;2023-01-20T08:17:32;100228.41;;;-1.89;100.00
18022;BME280;9136;48.822;7.966;2023-01-20T08:20:19;100221.38;;;-1.97;100.00
18022;BME280;9136;48.822;7.966;2023-01-20T08:23:08;100197.31;;;-2.01;100.00
18022;BME280;9136;48.822;7.966;2023-01-20T08:25:56;100251.88;;;-1.72;100.00
18022;BME280;9136;48.822;7.966;2023-01-20T08:28:47;100226.88;;;-1.76;100.00
18022;BME280;9136;48.822;7.966;2023-01-20T08:31:35;100244.34;;;-1.60;100.00
18022;BME280;9136;48.822;7.966;2023-01-20T08:34:23;100232.31;;;-1.59;100.00
18022;BME280;9136;48.822;7.966;2023-01-20T08:37:11;100241.81;;;-1.55;100.00
18022;BME280;9136;48.822;7.966;2023-01-20T08:39:59;100248.19;;;-1.35;100.00
18022;BME280;9136;48.822;7.966;2023-01-20T08:42:47;100231.66;;;-1.46;100.00
18022;BME280;9136;48.822;7.966;2023-01-20T08:45:38;100229.22;;;-1.38;100.00
18022;BME280;9136;48.822;7.966;2023-01-20T08:48:28;100235.50;;;-1.23;100.00
18022;BME280;9136;48.822;7.966;2023-01-20T08:51:18;100218.22;;;-1.28;100.00
18022;BME280;9136;48.822;7.966;2023-01-20T08:54:07;100258.06;;;-1.06;100.00
18022;BME280;9136;48.822;7.966;2023-01-20T08:56:55;100237.25;;;-1.19;100.00
18022;BME280;9136;48.822;7.966;2023-01-20T08:59:42;100248.66;;;-1.04;100.00
18022;BME280;9136;48.822;7.966;2023-01-20T09:02:35;100233.22;;;-1.01;100.00
18022;BME280;9136;48.822;7.966;2023-01-20T09:05:23;100237.69;;;-0.90;100.00
18022;BME280;9136;48.822;7.966;2023-01-20T09:08:13;100249.09;;;-0.72;100.00
18022;BME280;9136;48.822;7.966;2023-01-20T09:11:02;100243.88;;;-0.77;100.00
18022;BME280;9136;48.822;7.966;2023-01-20T09:13:51;100251.69;;;-0.69;100.00
18022;BME280;9136;48.822;7.966;2023-01-20T09:16:39;100278.69;;;-0.44;100.00
18022;BME280;9136;48.822;7.966;2023-01-20T09:19:29;100284.88;;;-0.30;100.00
18022;BME280;9136;48.822;7.966;2023-01-20T09:22:17;100310.00;;;-0.18;100.00
18022;BME280;9136;48.822;7.966;2023-01-20T09:25:06;100295.41;;;-0.15;100.00
18022;BME280;9136;48.822;7.966;2023-01-20T09:27:54;100273.81;;;-0.21;100.00
18022;BME280;9136;48.822;7.966;2023-01-20T09:30:42;100294.66;;;-0.03;100.00
18022;BME280;9136;48.822;7.966;2023-01-20T09:33:30;100286.06;;;-0.04;100.00
18022;BME280;9136;48.822;7.966;2023-01-20T09:36:19;100279.28;;;0.06;100.00
18022;BME280;9136;48.822;7.966;2023-01-20T09:39:07;100287.16;;;0.18;100.00
18022;BME280;9136;48.822;7.966;2023-01-20T09:42:21;100295.94;;;0.34;100.00
18022;BME280;9136;48.822;7.966;2023-01-20T09:45:32;100319.34;;;0.51;100.00
18022;BME280;9136;48.822;7.966;2023-01-20T09:48:31;100318.50;;;0.53;100.00
18022;BME280;9136;48.822;7.966;2023-01-20T09:51:47;100285.69;;;0.45;100.00
18022;BME280;9136;48.822;7.966;2023-01-20T09:55:01;100304.75;;;0.56;100.00
18022;BME280;9136;48.822;7.966;2023-01-20T09:57:57;100299.66;;;0.65;100.00
18022;BME280;9136;48.822;7.966;2023-01-20T10:00:51;100325.81;;;1.00;100.00
18022;BME280;9136;48.822;7.966;2023-01-20T10:03:47;100311.16;;;0.98;100.00
18022;BME280;9136;48.822;7.966;2023-01-20T10:06:40;100305.94;;;0.95;100.00
18022;BME280;9136;48.822;7.966;2023-01-20T10:09:37;100281.78;;;0.94;100.00
18022;BME280;9136;48.822;7.966;2023-01-20T10:12:30;100315.59;;;1.20;100.00
18022;BME280;9136;48.822;7.966;2023-01-20T10:15:24;100327.00;;;1.47;100.00
18022;BME280;9136;48.822;7.966;2023-01-20T10:18:14;100319.22;;;1.48;100.00
18022;BME280;9136;48.822;7.966;2023-01-20T10:21:08;100319.22;;;1.48;100.00
18022;BME280;9136;48.822;7.966;2023-01-20T10:23:59;100315.78;;;1.51;100.00
18022;BME280;9136;48.822;7.966;2023-01-20T10:26:53;100315.88;;;1.67;100.00
18022;BME280;9136;48.822;7.966;2023-01-20T10:29:48;100334.88;;;1.65;100.00
18022;BME280;9136;48.822;7.966;2023-01-20T10:32:46;100310.72;;;1.67;100.00
18022;BME280;9136;48.822;7.966;2023-01-20T10:35:37;100338.50;;;2.10;100.00
18022;BME280;9136;48.822;7.966;2023-01-20T10:38:32;100331.66;;;2.28;100.00
18022;BME280;9136;48.822;7.966;2023-01-20T10:41:27;100349.00;;;2.78;100.00
18022;BME280;9136;48.822;7.966;2023-01-20T10:44:20;100330.03;;;3.10;100.00
18022;BME280;9136;48.822;7.966;2023-01-20T10:47:19;100323.88;;;3.52;100.00
18022;BME280;9136;48.822;7.966;2023-01-20T10:50:21;100325.69;;;3.20;100.00
18022;BME280;9136;48.822;7.966;2023-01-20T10:53:23;100323.09;;;2.84;100.00
18022;BME280;9136;48.822;7.966;2023-01-20T10:56:29;100309.19;;;2.27;100.00
18022;BME280;9136;48.822;7.966;2023-01-20T10:59:27;100297.88;;;1.96;100.00
18022;BME280;9136;48.822;7.966;2023-01-20T11:02:21;100343.59;;;1.93;100.00
18022;BME280;9136;48.822;7.966;2023-01-20T11:05:16;100330.66;;;1.85;100.00
18022;BME280;9136;48.822;7.966;2023-01-20T11:08:09;100328.22;;;2.48;100.00
18022;BME280;9136;48.822;7.966;2023-01-20T11:11:09;100344.50;;;5.30;100.00
18022;BME280;9136;48.822;7.966;2023-01-20T11:13:58;100337.66;;;5.23;100.00
18022;BME280;9136;48.822;7.966;2023-01-20T11:16:53;100339.50;;;3.41;100.00
18022;BME280;9136;48.822;7.966;2023-01-20T11:19:47;100342.97;;;2.98;100.00
18022;BME280;9136;48.822;7.966;2023-01-20T11:22:36;100357.69;;;2.86;100.00
18022;BME280;9136;48.822;7.966;2023-01-20T11:25:25;100329.09;;;2.45;100.00
18022;BME280;9136;48.822;7.966;2023-01-20T11:28:16;100339.53;;;2.93;100.00
18022;BME280;9136;48.822;7.966;2023-01-20T11:31:04;100328.25;;;2.54;100.00
18022;BME280;9136;48.822;7.966;2023-01-20T11:33:59;100342.13;;;2.71;100.00
18022;BME280;9136;48.822;7.966;2023-01-20T11:36:47;100323.06;;;3.26;100.00
18022;BME280;9136;48.822;7.966;2023-01-20T11:39:41;100339.97;;;4.46;100.00
18022;BME280;9136;48.822;7.966;2023-01-20T11:42:41;100332.28;;;7.30;100.00
18022;BME280;9136;48.822;7.966;2023-01-20T11:45:33;100323.88;;;7.61;97.93
18022;BME280;9136;48.822;7.966;2023-01-20T11:48:21;100326.34;;;7.22;100.00
18022;BME280;9136;48.822;7.966;2023-01-20T11:51:20;100321.19;;;8.87;81.50
18022;BME280;9136;48.822;7.966;2023-01-20T11:54:13;100318.09;;;10.35;65.72
18022;BME280;9136;48.822;7.966;2023-01-20T11:57:04;100300.81;;;10.83;57.70
18022;BME280;9136;48.822;7.966;2023-01-20T11:59:53;100325.53;;;9.89;56.13
18022;BME280;9136;48.822;7.966;2023-01-20T12:02:41;100319.00;;;8.71;60.43
18022;BME280;9136;48.822;7.966;2023-01-20T12:05:36;100313.22;;;8.15;66.17
18022;BME280;9136;48.822;7.966;2023-01-20T12:08:32;100318.28;;;5.51;94.25
18022;BME280;9136;48.822;7.966;2023-01-20T12:11:24;100344.22;;;4.57;100.00
18022;BME280;9136;48.822;7.966;2023-01-20T12:14:18;100322.00;;;3.97;100.00
18022;BME280;9136;48.822;7.966;2023-01-20T12:17:16;100317.78;;;3.71;100.00
18022;BME280;9136;48.822;7.966;2023-01-20T12:20:10;100336.03;;;3.38;100.00
18022;BME280;9136;48.822;7.966;2023-01-20T12:23:11;100305.78;;;3.20;100.00
18022;BME280;9136;48.822;7.966;2023-01-20T12:26:08;100323.94;;;3.22;100.00
18022;BME280;9136;48.822;7.966;2023-01-20T12:29:00;100315.28;;;3.18;100.00
18022;BME280;9136;48.822;7.966;2023-01-20T12:31:49;100303.19;;;3.09;100.00
18022;BME280;9136;48.822;7.966;2023-01-20T12:34:37;100313.56;;;3.22;100.00
18022;BME280;9136;48.822;7.966;2023-01-20T12:37:31;100318.72;;;3.26;100.00
18022;BME280;9136;48.822;7.966;2023-01-20T12:40:31;100307.47;;;3.39;100.00
18022;BME280;9136;48.822;7.966;2023-01-20T12:43:32;100333.38;;;3.65;100.00
18022;BME280;9136;48.822;7.966;2023-01-20T12:46:32;100305.72;;;3.46;100.00
18022;BME280;9136;48.822;7.966;2023-01-20T12:49:33;100320.38;;;3.64;100.00
18022;BME280;9136;48.822;7.966;2023-01-20T12:52:37;100329.00;;;3.78;100.00
18022;BME280;9136;48.822;7.966;2023-01-20T12:55:36;100317.78;;;3.62;100.00
18022;BME280;9136;48.822;7.966;2023-01-20T12:58:37;100326.53;;;3.29;100.00
18022;BME280;9136;48.822;7.966;2023-01-20T13:01:41;100318.78;;;3.09;100.00
18022;BME280;9136;48.822;7.966;2023-01-20T13:07:54;100318.75;;;2.86;100.00
18022;BME280;9136;48.822;7.966;2023-01-20T13:10:52;100327.41;;;2.75;100.00
18022;BME280;9136;48.822;7.966;2023-01-20T13:13:58;100342.97;;;2.98;100.00
18022;BME280;9136;48.822;7.966;2023-01-20T13:16:52;100317.91;;;2.94;100.00
18022;BME280;9136;48.822;7.966;2023-01-20T13:19:43;100346.34;;;3.64;100.00
18022;BME280;9136;48.822;7.966;2023-01-20T13:22:35;100309.94;;;3.82;100.00
18022;BME280;9136;48.822;7.966;2023-01-20T13:25:23;100333.31;;;3.88;100.00
18022;BME280;9136;48.822;7.966;2023-01-20T13:28:15;100315.16;;;3.79;100.00
18022;BME280;9136;48.822;7.966;2023-01-20T13:31:40;100352.28;;;4.09;100.00
18022;BME280;9136;48.822;7.966;2023-01-20T13:34:38;100326.44;;;3.63;100.00
18022;BME280;9136;48.822;7.966;2023-01-20T13:37:28;100310.09;;;3.21;100.00
18022;BME280;9136;48.822;7.966;2023-01-20T13:40:46;100354.16;;;3.67;100.00
18022;BME280;9136;48.822;7.966;2023-01-20T13:43:46;100344.59;;;3.73;100.00
18022;BME280;9136;48.822;7.966;2023-01-20T13:46:43;100356.72;;;3.78;100.00
18022;BME280;9136;48.822;7.966;2023-01-20T13:49:50;100345.44;;;3.85;100.00
18022;BME280;9136;48.822;7.966;2023-01-20T13:53:23;100349.78;;;3.83;100.00
18022;BME280;9136;48.822;7.966;2023-01-20T13:56:26;100306.56;;;3.56;100.00
18022;BME280;9136;48.822;7.966;2023-01-20T13:59:14;100325.59;;;3.59;100.00
18022;BME280;9136;48.822;7.966;2023-01-20T14:02:15;100355.94;;;3.43;100.00
18022;BME280;9136;48.822;7.966;2023-01-20T14:05:18;100324.81;;;3.21;100.00
18022;BME280;9136;48.822;7.966;2023-01-20T14:08:12;100325.69;;;2.94;100.00
18022;BME280;9136;48.822;7.966;2023-01-20T14:11:09;100336.94;;;2.91;100.00
18022;BME280;9136;48.822;7.966;2023-01-20T14:13:59;100345.56;;;2.95;100.00
18022;BME280;9136;48.822;7.966;2023-01-20T14:16:48;100357.69;;;2.99;100.00
18022;BME280;9136;48.822;7.966;2023-01-20T14:19:37;100317.03;;;2.76;100.00
18022;BME280;9136;48.822;7.966;2023-01-20T14:22:26;100342.13;;;2.96;100.00
18022;BME280;9136;48.822;7.966;2023-01-20T14:25:19;100330.00;;;2.79;100.00
18022;BME280;9136;48.822;7.966;2023-01-20T14:28:17;100314.44;;;2.64;100.00
18022;BME280;9136;48.822;7.966;2023-01-20T14:31:20;100351.63;;;2.74;100.00
18022;BME280;9136;48.822;7.966;2023-01-20T14:34:22;100364.59;;;2.81;100.00
18022;BME280;9136;48.822;7.966;2023-01-20T14:37:23;100342.94;;;2.69;100.00
18022;BME280;9136;48.822;7.966;2023-01-20T14:40:19;100323.06;;;2.57;100.00
18022;BME280;9136;48.822;7.966;2023-01-20T14:43:14;100335.19;;;2.63;100.00
18022;BME280;9136;48.822;7.966;2023-01-20T14:46:04;100362.00;;;2.74;100.00
18022;BME280;9136;48.822;7.966;2023-01-20T14:48:53;100368.91;;;2.76;100.00
18022;BME280;9136;48.822;7.966;2023-01-20T14:51:41;100359.38;;;2.65;100.00
18022;BME280;9136;48.822;7.966;2023-01-20T14:54:35;100366.31;;;2.73;100.00
18022;BME280;9136;48.822;7.966;2023-01-20T14:57:29;100368.03;;;2.70;100.00
18022;BME280;9136;48.822;7.966;2023-01-20T15:00:21;100366.31;;;2.75;100.00
18022;BME280;9136;48.822;7.966;2023-01-20T15:03:14;100370.66;;;2.71;100.00
18022;BME280;9136;48.822;7.966;2023-01-20T15:06:16;100362.00;;;2.75;100.00
18022;BME280;9136;48.822;7.966;2023-01-20T15:12:34;100372.34;;;2.65;100.00
18022;BME280;9136;48.822;7.966;2023-01-20T15:15:27;100355.91;;;2.58;100.00
18022;BME280;9136;48.822;7.966;2023-01-20T15:18:20;100376.69;;;2.66;100.00
18022;BME280;9136;48.822;7.966;2023-01-20T15:21:22;100345.50;;;2.47;100.00